Terminal Aerodrome Forecast
Issued by NWS

Home | Current Version | Previous Version | Text Only | Print | Product List | Glossary On
Versions: 1 2 3 4 5 6 7 8 9 10 11 12 13 14 15 16 17 18 19 20 21 22
928
FTUS43 KAPX 071120
TAFMBL
TAF
KMBL 071120Z 0712/0812 25014G23KT P6SM VCSH SCT015 OVC025
     FM080600 28014G23KT 4SM -SHSN BLSN OVC018=

USA.gov is the U.S. government's official web portal to all federal, state and local government web resources and services.